Home > Products > Valid Products > TAF

000
FTUS43 KGLD 050520
TAFMCK
TAF
KMCK 050520Z 0506/0606 VRB03KT P6SM SKC
     FM051800 17011KT P6SM FEW250=



000
FTUS43 KGLD 050520
TAFGLD
TAF
KGLD 050520Z 0506/0606 18006KT P6SM SKC
     FM051500 17012G18KT P6SM FEW250
     FM060100 15010KT P6SM FEW250=



000
FTUS43 KGLD 042320
TAFMCK
TAF
KMCK 042320Z 0500/0524 VRB04KT P6SM SKC
     FM051800 17010KT P6SM SKC=



000
FTUS43 KGLD 042320
TAFGLD
TAF
KGLD 042320Z 0500/0524 VRB05KT P6SM SKC
     FM051600 18012G18KT P6SM FEW250=



000
FTUS43 KGLD 042320
TAFMCK
TAF
KMCK 042320Z 0500/0524 VRB04KT P6SM SKC
     FM051800 17010KT P6SM SKC=



000
FTUS43 KGLD 042320
TAFGLD
TAF
KGLD 042320Z 0500/0524 VRB05KT P6SM SKC
     FM051600 18012G18KT P6SM FEW250=



000
FTUS43 KGLD 041739
TAFGLD
TAF
KGLD 041739Z 0418/0518 VRB06KT P6SM SKC=



000
FTUS43 KGLD 041739
TAFMCK
TAF
KMCK 041739Z 0418/0518 VRB06KT P6SM SKC=



000
FTUS43 KGLD 041739
TAFMCK
TAF
KMCK 041739Z 0418/0518 VRB06KT P6SM SKC=



000
FTUS43 KGLD 041739
TAFGLD
TAF
KGLD 041739Z 0418/0518 VRB06KT P6SM SKC=



000
FTUS43 KGLD 041128
TAFMCK
TAF
KMCK 041128Z 0412/0512 29006KT P6SM SKC
     FM041500 36007KT P6SM SKC
     FM042300 VRB05KT P6SM SKC=



000
FTUS43 KGLD 041128
TAFGLD
TAF
KGLD 041128Z 0412/0512 29008KT P6SM SKC
     FM041500 35008KT P6SM SKC
     FM042300 VRB05KT P6SM SKC
     FM050600 19007KT P6SM SKC=



000
FTUS43 KGLD 041128
TAFGLD
TAF
KGLD 041128Z 0412/0512 29008KT P6SM SKC
     FM041500 35008KT P6SM SKC
     FM042300 VRB05KT P6SM SKC
     FM050600 19007KT P6SM SKC=



000
FTUS43 KGLD 041128
TAFMCK
TAF
KMCK 041128Z 0412/0512 29006KT P6SM SKC
     FM041500 36007KT P6SM SKC
     FM042300 VRB05KT P6SM SKC=



000
FTUS43 KGLD 040520
TAFMCK
TAF
KMCK 040520Z 0406/0506 29008KT P6SM SKC
     FM041700 36010KT P6SM SKC
     FM042300 VRB04KT P6SM SKC=



000
FTUS43 KGLD 040520
TAFGLD
TAF
KGLD 040520Z 0406/0506 28008KT P6SM SKC
     FM041700 36010KT P6SM SKC
     FM042200 VRB05KT P6SM SKC=



000
FTUS43 KGLD 032320
TAFGLD
TAF
KGLD 032320Z 0400/0424 35011G18KT P6SM SKC
     FM040100 32006KT P6SM SKC=



000
FTUS43 KGLD 032320
TAFMCK
TAF
KMCK 032320Z 0400/0424 32011KT P6SM FEW050
     FM040100 30005KT P6SM SKC
     FM041800 36010KT P6SM SKC=



000
FTUS43 KGLD 032320
TAFMCK
TAF
KMCK 032320Z 0400/0424 32011KT P6SM FEW050
     FM040100 30005KT P6SM SKC
     FM041800 36010KT P6SM SKC=



000
FTUS43 KGLD 032320
TAFGLD
TAF
KGLD 032320Z 0400/0424 35011G18KT P6SM SKC
     FM040100 32006KT P6SM SKC=



000
FTUS43 KGLD 031720
TAFGLD
TAF
KGLD 031720Z 0318/0418 34013G19KT P6SM SCT025 SCT040
      TEMPO 0318/0321 BKN025
     FM040000 30008KT P6SM SKC
     FM041300 35011KT P6SM SKC=



000
FTUS43 KGLD 031720
TAFMCK
TAF
KMCK 031720Z 0318/0418 35010KT P6SM SCT025
      TEMPO 0318/0321 BKN025
     FM040100 29007KT P6SM SKC
     FM041400 34011KT P6SM SKC=



000
FTUS43 KGLD 031720
TAFMCK
TAF
KMCK 031720Z 0318/0418 35010KT P6SM SCT025
      TEMPO 0318/0321 BKN025
     FM040100 29007KT P6SM SKC
     FM041400 34011KT P6SM SKC=



000
FTUS43 KGLD 031720
TAFGLD
TAF
KGLD 031720Z 0318/0418 34013G19KT P6SM SCT025 SCT040
      TEMPO 0318/0321 BKN025
     FM040000 30008KT P6SM SKC
     FM041300 35011KT P6SM SKC=



000
FTUS43 KGLD 031607 AAC
TAFMCK
TAF AMD
KMCK 031607Z 0316/0412 36009KT P6SM SCT025
      TEMPO 0316/0318 BKN025
     FM031800 33010KT P6SM FEW250
     FM040300 29007KT P6SM SKC=



000
FTUS43 KGLD 031607 AAC
TAFMCK
TAF AMD
KMCK 031607Z 0316/0412 36009KT P6SM SCT025
      TEMPO 0316/0318 BKN025
     FM031800 33010KT P6SM FEW250
     FM040300 29007KT P6SM SKC=



000
FTUS43 KGLD 031606 AAC
TAFGLD
TAF AMD
KGLD 031606Z 0316/0412 34013G19KT P6SM SCT025
      TEMPO 0316/0318 BKN025
     FM040100 31008KT P6SM SKC
     FM040600 28008KT P6SM SKC=



000
FTUS43 KGLD 031606 AAC
TAFGLD
TAF AMD
KGLD 031606Z 0316/0412 34013G19KT P6SM SCT025
      TEMPO 0316/0318 BKN025
     FM040100 31008KT P6SM SKC
     FM040600 28008KT P6SM SKC=



000
FTUS43 KGLD 031134 AAB
TAFGLD
TAF AMD
KGLD 031134Z 0312/0412 31006KT P6SM SCT060 BKN090
     FM031500 34013G19KT P6SM SCT200
     FM040100 31008KT P6SM SKC
     FM040600 28008KT P6SM SKC=



000
FTUS43 KGLD 031134 AAB
TAFMCK
TAF AMD
KMCK 031134Z 0312/0412 30006KT P6SM SCT040 BKN080
     FM031300 36009KT P6SM FEW020 SCT060
     FM031700 33010KT P6SM FEW250
     FM040300 29007KT P6SM SKC=



000
FTUS43 KGLD 030739 AAA
TAFMCK
TAF AMD
KMCK 030739Z 0308/0406 VRB05KT 6SM -RA BKN040
     FM031000 34009KT P6SM SCT150
     FM040200 30007KT P6SM FEW250=



000
FTUS43 KGLD 030739 AAA
TAFMCK
TAF AMD
KMCK 030739Z 0308/0406 VRB05KT 6SM -RA BKN040
     FM031000 34009KT P6SM SCT150
     FM040200 30007KT P6SM FEW250=



000
FTUS43 KGLD 030520
TAFMCK
TAF
KMCK 030520Z 0306/0406 22004KT P6SM FEW110
     FM030800 33006KT P6SM VCSH BKN080
     FM031100 34006KT P6SM SCT150
     FM032000 34010KT P6SM FEW250
     FM040200 32006KT P6SM FEW250=



000
FTUS43 KGLD 030520 CCA
TAFMCK
TAF COR
KMCK 030520Z 0306/0406 22004KT P6SM -SHRA FEW110
     FM030800 33006KT P6SM VCSH BKN080
     FM031100 34006KT P6SM SCT150
     FM032000 34010KT P6SM FEW250
     FM040200 32006KT P6SM FEW250=



000
FTUS43 KGLD 030520
TAFGLD
TAF
KGLD 030520Z 0306/0406 VRB05KT P6SM VCSH OVC090
     FM030900 30008KT P6SM BKN120
     FM031100 33007KT P6SM SCT120
     FM031500 34012G17KT P6SM SCT150
     FM040200 33007KT P6SM FEW250=



000
FTUS43 KGLD 030520 CCA
TAFMCK
TAF COR
KMCK 030520Z 0306/0406 22004KT P6SM -SHRA FEW110
     FM030800 33006KT P6SM VCSH BKN080
     FM031100 34006KT P6SM SCT150
     FM032000 34010KT P6SM FEW250
     FM040200 32006KT P6SM FEW250=



000
FTUS43 KGLD 030520
TAFGLD
TAF
KGLD 030520Z 0306/0406 VRB05KT P6SM VCSH OVC090
     FM030900 30008KT P6SM BKN120
     FM031100 33007KT P6SM SCT120
     FM031500 34012G17KT P6SM SCT150
     FM040200 33007KT P6SM FEW250=



000
FTUS43 KGLD 030520
TAFMCK
TAF
KMCK 030520Z 0306/0406 22004KT P6SM FEW110
     FM030800 33006KT P6SM VCSH BKN080
     FM031100 34006KT P6SM SCT150
     FM032000 34010KT P6SM FEW250
     FM040200 32006KT P6SM FEW250=



000
FTUS43 KGLD 022320
TAFGLD
TAF
KGLD 022320Z 0300/0324 33011KT P6SM SKC
     FM030300 25005KT P6SM SCT150
     FM030800 28006KT P6SM -SHRA SCT025 BKN050
     FM031200 31012G20KT P6SM SCT100=



000
FTUS43 KGLD 022320
TAFMCK
TAF
KMCK 022320Z 0300/0324 32011KT P6SM FEW150
     FM030300 VRB03KT P6SM -SHRA BKN050
     FM030800 28005KT P6SM BKN080
     FM031100 29010KT P6SM SCT090
     FM031600 34009KT P6SM SCT250=



000
FTUS43 KGLD 021900 AAB
TAFGLD
TAF AMD
KGLD 021900Z 0219/0318 33012G20KT P6SM FEW250
     FM030300 26006KT P6SM SCT100
     FM030800 30010KT 6SM -SHRA SCT025 BKN050
     FM031130 32012G20KT P6SM SCT120=



000
FTUS43 KGLD 021900 AAA
TAFMCK
TAF AMD
KMCK 021900Z 0219/0318 30010KT P6SM FEW150
     FM022100 33008KT P6SM SCT200
     FM030300 VRB03KT 6SM -SHRA BKN035
     FM030800 30006KT P6SM SCT100
     FM031300 35010G18KT P6SM SCT200=



000
FTUS43 KGLD 021900 AAB
TAFGLD
TAF AMD
KGLD 021900Z 0219/0318 33012G20KT P6SM FEW250
     FM030300 26006KT P6SM SCT100
     FM030800 30010KT 6SM -SHRA SCT025 BKN050
     FM031130 32012G20KT P6SM SCT120=



000
FTUS43 KGLD 021900 AAA
TAFMCK
TAF AMD
KMCK 021900Z 0219/0318 30010KT P6SM FEW150
     FM022100 33008KT P6SM SCT200
     FM030300 VRB03KT 6SM -SHRA BKN035
     FM030800 30006KT P6SM SCT100
     FM031300 35010G18KT P6SM SCT200=



000
FTUS43 KGLD 021720
TAFMCK
TAF
KMCK 021720Z 0218/0318 30003KT P6SM FEW150
     FM022100 33008KT P6SM SCT200
     FM030300 VRB03KT 6SM -SHRA BKN035
     FM030800 30006KT P6SM SCT100
     FM031300 35010G18KT P6SM SCT200=



000
FTUS43 KGLD 021720
TAFGLD
TAF
KGLD 021720Z 0218/0318 32012G20KT P6SM FEW250
     FM030300 26006KT P6SM SCT100
     FM030800 30010KT 6SM -SHRA SCT025 BKN050
     FM031130 32012G20KT P6SM SCT120=



000
FTUS43 KGLD 021128
TAFGLD
TAF
KGLD 021128Z 0212/0312 29007KT P6SM FEW250
     FM021600 32009KT P6SM FEW250
     FM030300 26006KT P6SM SCT100
     FM030800 29010KT P6SM VCSH SCT050 BKN090
     FM031100 32012KT P6SM SCT090=



000
FTUS43 KGLD 021128
TAFMCK
TAF
KMCK 021128Z 0212/0312 30006KT P6SM FEW150
     FM022100 33008KT P6SM SCT200
     FM030300 VRB03KT P6SM VCSH BKN060
     FM030800 30006KT P6SM SCT100=



    US Dept of Commerce
    National Oceanic and Atmospheric Administration
    National Weather Service
    1325 East West Highway
    Silver Spring, MD 20910
    Page Author: NWS Internet Services Team
Disclaimer
Information Quality
Credits
Glossary
Privacy Policy
Freedom of Information Act (FOIA)
About Us
Career Opportunities